createdAt,value
2024-01-08T00:00:03.829Z,74.75
2024-01-08T00:04:16.393Z,74.64
2024-01-08T00:08:28.205Z,74.27
2024-01-08T00:12:39.892Z,74.11
2024-01-08T00:16:51.610Z,74.01
2024-01-08T00:21:04.193Z,74.04
2024-01-08T00:25:15.994Z,73.83
2024-01-08T00:29:27.836Z,74.02
2024-01-08T00:33:39.571Z,74.31
2024-01-08T00:37:51.315Z,74.26
2024-01-08T00:42:03.049Z,74.78
2024-01-08T00:46:14.688Z,75.18
2024-01-08T00:50:27.842Z,74.93
2024-01-08T00:54:39.623Z,75.30
2024-01-08T00:58:51.970Z,75.65
2024-01-08T01:03:03.971Z,76.46
2024-01-08T01:07:15.659Z,76.57
2024-01-08T01:11:27.464Z,76.43
2024-01-08T01:15:39.130Z,76.50
2024-01-08T01:19:50.777Z,77.19
2024-01-08T01:24:02.526Z,76.67
2024-01-08T01:28:14.196Z,77.55
2024-01-08T01:32:25.849Z,77.73
2024-01-08T01:36:38.377Z,78.16
2024-01-08T01:40:49.986Z,77.93
2024-01-08T01:45:01.682Z,78.10
2024-01-08T01:49:15.037Z,78.30
2024-01-08T01:53:28.201Z,78.60
2024-01-08T01:57:41.349Z,78.48
2024-01-08T02:01:53.417Z,78.97
2024-01-08T02:06:10.138Z,78.94
2024-01-08T02:10:21.972Z,79.53
2024-01-08T02:14:33.819Z,79.59
2024-01-08T02:18:45.556Z,79.97
2024-01-08T02:22:59.556Z,79.99
2024-01-08T02:27:11.594Z,80.58
2024-01-08T02:31:23.656Z,80.21
2024-01-08T02:35:35.384Z,80.60
2024-01-08T02:39:47.081Z,80.43
2024-01-08T02:43:58.758Z,80.91
2024-01-08T02:48:10.787Z,80.65
2024-01-08T02:52:22.474Z,80.99
2024-01-08T02:56:34.330Z,81.61
2024-01-08T03:00:46.013Z,81.00
2024-01-08T03:04:57.823Z,81.45
2024-01-08T03:09:09.445Z,81.35
2024-01-08T03:13:21.107Z,80.79
2024-01-08T03:17:32.900Z,81.49
2024-01-08T03:21:44.707Z,81.27
2024-01-08T03:25:56.426Z,80.72
2024-01-08T03:30:08.569Z,80.70
2024-01-08T03:34:20.337Z,81.03
2024-01-08T03:38:32.101Z,81.03
2024-01-08T03:42:43.829Z,80.84
2024-01-08T03:47:13.973Z,80.46
2024-01-08T03:51:25.735Z,80.27
2024-01-08T03:55:39.001Z,80.13
2024-01-08T03:59:50.628Z,80.12
2024-01-08T04:04:02.703Z,79.89
2024-01-08T04:08:14.393Z,80.14
2024-01-08T04:12:26.094Z,80.29
2024-01-08T04:16:38.748Z,80.40
2024-01-08T04:20:50.372Z,81.20
2024-01-08T04:25:01.963Z,80.63
2024-01-08T04:29:13.686Z,80.98
2024-01-08T04:33:25.403Z,81.10
2024-01-08T04:37:37.537Z,81.55
2024-01-08T04:41:49.371Z,81.39
2024-01-08T04:46:00.957Z,81.88
2024-01-08T04:50:12.729Z,82.06
2024-01-08T04:54:24.364Z,82.28
2024-01-08T04:58:35.978Z,82.56
2024-01-08T05:02:47.723Z,82.43
2024-01-08T05:07:02.174Z,82.82
2024-01-08T05:11:14.601Z,83.19
2024-01-08T05:15:26.348Z,83.34
2024-01-08T05:19:37.994Z,83.09
2024-01-08T05:23:51.665Z,83.31
2024-01-08T05:28:04.682Z,83.45
2024-01-08T05:32:16.355Z,83.61
2024-01-08T05:36:28.058Z,84.04
2024-01-08T05:40:39.953Z,84.11
2024-01-08T05:44:51.637Z,84.34
2024-01-08T05:49:03.388Z,84.29
2024-01-08T05:53:15.271Z,84.76
2024-01-08T05:57:26.962Z,84.15
2024-01-08T06:01:38.591Z,84.75
2024-01-08T06:05:51.248Z,84.66
2024-01-08T06:10:02.981Z,84.53
2024-01-08T06:14:14.672Z,84.49
2024-01-08T06:18:28.458Z,84.57
2024-01-08T06:22:40.158Z,85.04
2024-01-08T06:26:51.816Z,84.97
2024-01-08T06:31:04.758Z,84.93
2024-01-08T06:35:16.500Z,84.75
2024-01-08T06:39:28.185Z,84.63
2024-01-08T06:43:40.093Z,85.15
2024-01-08T06:47:51.820Z,84.99
2024-01-08T06:52:03.580Z,84.64
2024-01-08T06:56:15.188Z,84.73
2024-01-08T07:00:28.313Z,84.76
2024-01-08T07:04:40.040Z,84.49
2024-01-08T07:08:51.734Z,84.55
2024-01-08T07:13:03.512Z,84.67
2024-01-08T07:17:15.209Z,84.42
2024-01-08T07:21:27.046Z,84.38
2024-01-08T07:25:39.814Z,83.84
2024-01-08T07:29:51.518Z,84.24
2024-01-08T07:34:03.199Z,83.58
2024-01-08T07:38:14.898Z,83.87
2024-01-08T07:42:26.597Z,83.33
2024-01-08T07:46:38.261Z,83.28
2024-01-08T07:50:50.042Z,83.45
2024-01-08T07:55:01.953Z,83.08
2024-01-08T07:59:13.642Z,83.21
2024-01-08T08:03:25.277Z,83.37
2024-01-08T08:07:37.096Z,83.25
2024-01-08T08:11:48.663Z,83.34
2024-01-08T08:16:00.683Z,83.46
2024-01-08T08:20:12.577Z,83.50
2024-01-08T08:24:24.479Z,83.70
2024-01-08T08:28:36.125Z,83.88
2024-01-08T08:32:48.117Z,83.82
2024-01-08T08:37:03.170Z,83.61
2024-01-08T08:41:16.529Z,83.51
2024-01-08T08:45:29.355Z,83.60
2024-01-08T08:49:41.046Z,83.10
2024-01-08T08:53:52.661Z,83.67
2024-01-08T08:58:10.119Z,84.56
2024-01-08T09:02:21.868Z,85.05
2024-01-08T09:06:35.913Z,85.73
2024-01-08T09:10:47.656Z,85.98
2024-01-08T09:14:59.378Z,86.09
2024-01-08T09:19:11.220Z,86.38
2024-01-08T09:23:23.232Z,86.54
2024-01-08T09:27:34.952Z,86.60
2024-01-08T09:31:46.983Z,86.10
2024-01-08T09:35:59.529Z,86.17
2024-01-08T09:40:11.857Z,85.60
2024-01-08T09:44:23.925Z,85.40
2024-01-08T09:48:37.091Z,84.64
2024-01-08T09:52:50.913Z,84.22
2024-01-08T09:57:03.685Z,83.66
2024-01-08T10:01:15.369Z,83.44
2024-01-08T10:05:28.435Z,83.17
2024-01-08T10:09:40.551Z,82.53
2024-01-08T10:13:52.207Z,82.23
2024-01-08T10:18:07.544Z,82.35
2024-01-08T10:22:19.296Z,81.67
2024-01-08T10:26:31.008Z,81.22
2024-01-08T10:30:43.056Z,81.04
2024-01-08T10:34:56.942Z,80.73
2024-01-08T10:39:11.044Z,80.24
2024-01-08T10:43:22.904Z,79.83
2024-01-08T10:47:36.858Z,78.78
2024-01-08T10:51:50.492Z,78.12
2024-01-08T10:56:07.032Z,77.28
2024-01-08T11:00:20.113Z,75.69
2024-01-08T11:04:32.222Z,74.27
2024-01-08T11:08:44.041Z,74.35
2024-01-08T11:12:56.972Z,74.68
2024-01-08T11:17:11.882Z,74.80
2024-01-08T11:21:28.550Z,74.07
2024-01-08T11:25:50.284Z,73.15
2024-01-08T11:30:05.301Z,72.67
2024-01-08T11:34:45.709Z,72.30
2024-01-08T11:39:14.675Z,71.11
2024-01-08T11:43:27.399Z,70.73
2024-01-08T11:47:40.331Z,70.03
2024-01-08T11:52:01.175Z,67.46
2024-01-08T11:56:12.929Z,65.97
2024-01-08T12:00:29.583Z,64.91
2024-01-08T12:04:53.530Z,64.58
2024-01-08T12:09:05.150Z,63.53
2024-01-08T12:13:18.243Z,63.56
2024-01-08T12:17:30.890Z,61.52
2024-01-08T12:21:46.147Z,61.06
2024-01-08T12:26:00.811Z,60.67
2024-01-08T12:30:13.469Z,60.15
2024-01-08T12:34:30.233Z,60.05
2024-01-08T12:38:42.024Z,59.71
2024-01-08T12:42:53.624Z,57.91
2024-01-08T12:47:06.902Z,58.07
2024-01-08T12:51:19.504Z,56.91
2024-01-08T12:55:31.072Z,56.47
2024-01-08T12:59:53.654Z,56.73
2024-01-08T13:04:06.229Z,56.72
2024-01-08T13:08:17.868Z,57.04
2024-01-08T13:12:29.587Z,57.56
2024-01-08T13:16:42.845Z,57.85
2024-01-08T13:20:54.564Z,57.48
2024-01-08T13:25:06.919Z,56.56
2024-01-08T13:29:18.456Z,56.58
2024-01-08T13:33:30.239Z,55.14
2024-01-08T13:37:41.925Z,55.07
2024-01-08T13:41:53.973Z,54.58
2024-01-08T13:46:05.627Z,52.12
2024-01-08T13:50:19.378Z,52.10
2024-01-08T13:54:31.030Z,51.54
2024-01-08T13:58:42.988Z,50.63
2024-01-08T14:02:54.900Z,49.63
2024-01-08T14:07:06.538Z,49.67
2024-01-08T14:11:18.243Z,49.40
2024-01-08T14:15:29.933Z,49.26
2024-01-08T14:19:41.521Z,49.68
2024-01-08T14:23:53.178Z,49.33
2024-01-08T14:28:05.113Z,48.78
2024-01-08T14:32:18.315Z,49.32
2024-01-08T14:36:30.068Z,49.64
2024-01-08T14:40:45.201Z,49.65
2024-01-08T14:44:56.803Z,50.43
2024-01-08T14:49:08.934Z,50.71
2024-01-08T14:53:20.720Z,51.16
2024-01-08T14:57:32.717Z,51.48
2024-01-08T15:01:44.350Z,52.12
2024-01-08T15:05:56.078Z,53.19
2024-01-08T15:10:09.463Z,53.79
2024-01-08T15:14:24.386Z,54.17
2024-01-08T15:18:38.455Z,53.87
2024-01-08T15:22:52.219Z,54.75
2024-01-08T15:27:06.098Z,55.59
2024-01-08T15:31:20.744Z,56.20
2024-01-08T15:35:34.545Z,56.59
2024-01-08T15:39:46.306Z,57.34
2024-01-08T15:43:58.382Z,57.78
2024-01-08T15:48:10.192Z,58.01
2024-01-08T15:52:21.927Z,58.39
2024-01-08T15:56:34.006Z,58.42
2024-01-08T16:00:48.611Z,58.70
2024-01-08T16:05:02.528Z,59.14
2024-01-08T16:09:14.400Z,59.10
2024-01-08T16:13:26.666Z,59.53
2024-01-08T16:17:38.523Z,59.13
2024-01-08T16:21:50.206Z,59.54
2024-01-08T16:26:01.995Z,59.47
2024-01-08T16:30:15.396Z,60.06
2024-01-08T16:34:32.457Z,59.99
2024-01-08T16:38:49.321Z,59.84
2024-01-08T16:43:01.045Z,61.00
2024-01-08T16:47:12.940Z,60.72
2024-01-08T16:51:24.800Z,60.46
2024-01-08T16:55:37.004Z,60.57
2024-01-08T16:59:48.802Z,60.60
2024-01-08T17:04:01.163Z,60.65
2024-01-08T17:08:13.388Z,61.44
2024-01-08T17:12:25.202Z,61.50
2024-01-08T17:16:37.350Z,62.07
2024-01-08T17:20:49.176Z,62.43
2024-01-08T17:25:04.179Z,62.86
2024-01-08T17:29:15.878Z,63.03
2024-01-08T17:33:27.691Z,63.29
2024-01-08T17:37:39.550Z,63.44
2024-01-08T17:41:51.335Z,63.84
2024-01-08T17:46:03.129Z,63.94
2024-01-08T17:50:15.272Z,64.38
2024-01-08T17:54:27.431Z,64.11
2024-01-08T17:58:39.441Z,63.70
2024-01-08T18:02:52.675Z,63.52
2024-01-08T18:07:05.140Z,63.81
2024-01-08T18:11:16.857Z,63.91
2024-01-08T18:15:29.186Z,64.22
2024-01-08T18:19:42.693Z,63.81
2024-01-08T18:23:54.837Z,64.21
2024-01-08T18:28:06.610Z,64.51
2024-01-08T18:32:18.817Z,64.64
2024-01-08T18:36:30.684Z,64.93
2024-01-08T18:40:43.279Z,65.40
2024-01-08T18:44:55.019Z,65.52
2024-01-08T18:49:07.525Z,65.66
2024-01-08T18:53:19.276Z,65.73
2024-01-08T18:57:31.321Z,66.51
2024-01-08T19:01:43.584Z,66.71
2024-01-08T19:05:56.132Z,66.88
2024-01-08T19:10:08.015Z,67.02
2024-01-08T19:14:19.825Z,67.58
2024-01-08T19:18:33.244Z,67.37
2024-01-08T19:22:44.972Z,67.38
2024-01-08T19:26:57.988Z,67.85
2024-01-08T19:31:10.127Z,68.05
2024-01-08T19:35:22.066Z,68.00
2024-01-08T19:39:33.688Z,68.60
2024-01-08T19:43:50.388Z,68.08
2024-01-08T19:48:02.386Z,68.12
2024-01-08T19:52:14.423Z,68.66
2024-01-08T19:56:26.101Z,68.26
2024-01-08T20:00:37.878Z,68.39
2024-01-08T20:04:49.992Z,68.84
2024-01-08T20:09:01.676Z,68.43
2024-01-08T20:13:13.359Z,68.98
2024-01-08T20:17:25.006Z,68.61
2024-01-08T20:21:36.783Z,68.65
2024-01-08T20:25:50.329Z,68.51
2024-01-08T20:30:02.395Z,67.99
2024-01-08T20:34:14.474Z,67.40
2024-01-08T20:38:27.307Z,67.41
2024-01-08T20:42:39.386Z,67.07
2024-01-08T20:46:51.037Z,67.02
2024-01-08T20:51:02.830Z,66.64
2024-01-08T20:55:14.543Z,66.53
2024-01-08T20:59:26.398Z,66.29
2024-01-08T21:03:38.136Z,66.63
2024-01-08T21:07:49.795Z,66.19
2024-01-08T21:12:01.447Z,66.28
2024-01-08T21:16:16.184Z,65.54
2024-01-08T21:20:27.871Z,65.62
2024-01-08T21:24:39.930Z,65.91
2024-01-08T21:28:51.590Z,65.97
2024-01-08T21:33:04.431Z,66.19
2024-01-08T21:37:16.209Z,65.81
2024-01-08T21:41:27.897Z,66.20
2024-01-08T21:45:39.594Z,66.24
2024-01-08T21:49:51.874Z,66.37
2024-01-08T21:54:03.557Z,65.72
2024-01-08T21:58:15.149Z,66.25
2024-01-08T22:02:27.004Z,65.85
2024-01-08T22:06:38.829Z,65.66
2024-01-08T22:10:50.503Z,65.64
2024-01-08T22:15:02.099Z,65.97
2024-01-08T22:19:13.762Z,65.86
2024-01-08T22:23:25.545Z,65.54
2024-01-08T22:27:37.210Z,65.66
2024-01-08T22:31:48.899Z,65.42
2024-01-08T22:36:00.567Z,65.77
2024-01-08T22:40:12.977Z,65.25
2024-01-08T22:44:25.919Z,65.38
2024-01-08T22:48:39.173Z,65.57
2024-01-08T22:52:50.785Z,65.64
2024-01-08T22:57:02.395Z,65.48
2024-01-08T23:01:14.167Z,65.13
2024-01-08T23:05:26.081Z,64.99
2024-01-08T23:09:37.860Z,65.51
2024-01-08T23:13:49.490Z,65.19
2024-01-08T23:18:04.912Z,64.78
2024-01-08T23:22:16.773Z,65.08
2024-01-08T23:26:28.666Z,64.51
2024-01-08T23:30:40.392Z,64.71
2024-01-08T23:34:52.035Z,65.08
2024-01-08T23:39:03.649Z,64.77
2024-01-08T23:43:17.185Z,64.42
2024-01-08T23:47:28.980Z,64.85
2024-01-08T23:51:40.987Z,64.91
2024-01-08T23:55:52.674Z,64.64
